Pagrindinis puslapis
METAR-TAF:

METAR-TAF

Oro uostai :

Jonšiopingas, Švedija

platuma: 57-46N, ilguma: 014-05E, Aukštis: 226 m

Dabartinis oras

Ataskaita buvo paskelbta 38 minutes, ne 01:20 UTC
Vėjas 17 kt iš Šiaurės Vakarų
Temperatūra -3°C
Drėgmė 80%
Slėgis 996 hPa
Matomumas 10 km arba daugiau
nėra debesų žemiau 1500 m ir nėra kamuolinių lietaus debesų

METAR: ESGJ 200120Z 32017KT CAVOK M03/M06 Q0996

Laikas: 02:58 (01:58 UTC)

Prognozė

Ataskaita buvo paskelbta 2 valandos ir 28 minutes, ne 23:30 UTC
Prognozė galioja nuo 20 metu 00 UTC su 20 metu 02 UTC
Vėjas 20 kt iš Šiaurės Vakarų su gūsio iki 30 kt
Matomumas 10 km arba daugiau
nėra debesų žemiau 1500 m ir nėra kamuolinių lietaus debesų
Tikimybė 40%
nuo 20 metu 00 UTC su 20 metu 02 UTC
Matomumas: 2000 m
ne aukštis 700 ft
sniegas

TAF: ESGJ 192330Z 2000/2002 32020G30KT CAVOK PROB40 2000/2002 2000 -SN VV007

Orai ataskaitas ir orų prognozės (METAR, TAF).

turimą stotys yra geltonos ir raudonos taškus žemėlapyje.

Perkelti pele per norėdami pamatyti stoties vardą.

Tada spustelėkite, norėdami matyti oro stebėjimo ir prognozės.

Norėdami pakeisti žemėlapį: spustelėkite ant žalios mygtukų su juodo kryžiaus žemyn,; žalią mygtuką su brūkšneliu, jei norite nutolinti; arba žalių rodyklių gretimoms žemėlapius.


METAR-TAF: